createdAt,value
2018-03-29T00:01:29.111Z,4.60
2018-03-29T00:03:58.768Z,4.50
2018-03-29T00:06:29.210Z,4.60
2018-03-29T00:08:58.944Z,4.50
2018-03-29T00:11:28.581Z,4.50
2018-03-29T00:13:58.411Z,4.40
2018-03-29T00:16:28.063Z,4.40
2018-03-29T00:18:58.356Z,4.30
2018-03-29T00:21:28.024Z,4.20
2018-03-29T00:26:33.452Z,4.30
2018-03-29T00:29:03.866Z,4.30
2018-03-29T00:31:33.641Z,4.20
2018-03-29T00:34:03.627Z,4.20
2018-03-29T00:36:33.504Z,4.10
2018-03-29T00:39:03.994Z,4.10
2018-03-29T00:41:34.146Z,4.00
2018-03-29T00:44:03.915Z,4.00
2018-03-29T00:46:33.725Z,4.00
2018-03-29T00:49:03.411Z,4.00
2018-03-29T00:51:33.960Z,4.00
2018-03-29T00:54:04.690Z,4.00
2018-03-29T00:56:34.073Z,4.00
2018-03-29T00:59:04.303Z,3.90
2018-03-29T01:01:34.482Z,3.80
2018-03-29T01:04:04.116Z,3.80
2018-03-29T01:06:34.536Z,3.70
2018-03-29T01:09:06.460Z,3.70
2018-03-29T01:11:36.059Z,3.70
2018-03-29T01:14:05.468Z,3.70
2018-03-29T01:16:35.034Z,3.70
2018-03-29T01:19:05.446Z,3.50
2018-03-29T01:21:35.671Z,3.40
2018-03-29T01:24:05.739Z,3.50
2018-03-29T01:26:35.147Z,3.40
2018-03-29T01:29:04.755Z,3.40
2018-03-29T01:31:34.256Z,3.40
2018-03-29T01:34:04.000Z,3.30
2018-03-29T01:36:33.281Z,3.20
2018-03-29T01:40:05.235Z,3.20
2018-03-29T01:42:34.958Z,3.20
2018-03-29T01:45:04.465Z,3.20
2018-03-29T01:47:33.863Z,3.20
2018-03-29T01:50:03.267Z,3.10
2018-03-29T01:52:32.804Z,3.00
2018-03-29T01:55:02.615Z,3.00
2018-03-29T01:57:32.741Z,3.00
2018-03-29T02:00:02.761Z,2.90
2018-03-29T02:02:32.098Z,2.90
2018-03-29T02:05:01.390Z,2.90
2018-03-29T02:07:30.479Z,2.90
2018-03-29T02:10:00.021Z,3.00
2018-03-29T02:12:29.532Z,2.90
2018-03-29T02:14:59.053Z,2.90
2018-03-29T02:17:28.088Z,2.90
2018-03-29T02:19:57.206Z,2.90
2018-03-29T02:22:26.901Z,2.90
2018-03-29T02:24:56.101Z,2.90
2018-03-29T02:27:25.364Z,2.90
2018-03-29T02:29:55.511Z,2.90
2018-03-29T02:32:25.153Z,2.80
2018-03-29T02:34:54.746Z,2.90
2018-03-29T02:37:24.180Z,2.90
2018-03-29T02:39:53.581Z,2.90
2018-03-29T02:42:22.688Z,2.80
2018-03-29T02:44:51.941Z,2.80
2018-03-29T02:47:21.051Z,2.80
2018-03-29T02:49:50.140Z,2.70
2018-03-29T02:52:20.268Z,2.80
2018-03-29T02:58:20.666Z,2.70
2018-03-29T03:00:50.613Z,2.80
2018-03-29T03:03:20.221Z,2.70
2018-03-29T03:05:49.640Z,2.70
2018-03-29T03:08:18.727Z,2.70
2018-03-29T03:10:48.222Z,2.70
2018-03-29T03:13:17.329Z,2.70
2018-03-29T03:15:46.498Z,2.70
2018-03-29T03:18:15.775Z,2.70
2018-03-29T03:20:45.569Z,2.80
2018-03-29T03:23:15.291Z,2.70
2018-03-29T03:25:45.194Z,2.70
2018-03-29T03:28:14.330Z,2.60
2018-03-29T03:30:44.068Z,2.70
2018-03-29T03:33:13.187Z,2.70
2018-03-29T03:35:42.249Z,2.70
2018-03-29T03:38:11.453Z,2.80
2018-03-29T03:40:41.306Z,2.80
2018-03-29T03:43:10.415Z,2.80
2018-03-29T03:45:40.312Z,2.80
2018-03-29T03:48:09.675Z,2.70
2018-03-29T03:50:38.931Z,2.80
2018-03-29T03:53:09.032Z,2.80
2018-03-29T03:55:39.397Z,2.80
2018-03-29T03:58:08.646Z,2.70
2018-03-29T04:00:37.924Z,2.80
2018-03-29T04:03:07.417Z,2.70
2018-03-29T04:05:36.725Z,2.80
2018-03-29T04:08:06.007Z,2.80
2018-03-29T04:10:35.275Z,2.70
2018-03-29T04:13:05.310Z,2.70
2018-03-29T04:15:34.650Z,2.70
2018-03-29T04:18:04.203Z,2.70
2018-03-29T04:20:34.421Z,2.70
2018-03-29T04:23:04.658Z,2.80
2018-03-29T04:25:33.879Z,2.70
2018-03-29T04:28:03.803Z,2.70
2018-03-29T04:30:33.003Z,2.70
2018-03-29T04:33:02.505Z,2.70
2018-03-29T04:35:31.582Z,2.60
2018-03-29T04:38:01.160Z,2.60
2018-03-29T04:40:31.849Z,2.60
2018-03-29T04:43:01.555Z,2.60
2018-03-29T04:45:31.048Z,2.60
2018-03-29T04:48:00.435Z,2.60
2018-03-29T04:50:29.780Z,2.50
2018-03-29T04:52:59.317Z,2.50
2018-03-29T04:55:29.507Z,2.50
2018-03-29T04:58:04.341Z,2.50
2018-03-29T05:00:33.732Z,2.50
2018-03-29T05:03:03.340Z,2.60
2018-03-29T05:05:32.723Z,2.60
2018-03-29T05:08:07.479Z,2.60
2018-03-29T05:10:36.846Z,2.50
2018-03-29T05:13:06.225Z,2.50
2018-03-29T05:15:35.572Z,2.50
2018-03-29T05:18:04.903Z,2.50
2018-03-29T05:20:39.343Z,2.60
2018-03-29T05:23:08.988Z,2.50
2018-03-29T05:25:42.888Z,2.60
2018-03-29T05:28:13.062Z,2.60
2018-03-29T05:30:43.402Z,2.60
2018-03-29T05:33:12.883Z,2.60
2018-03-29T05:35:43.025Z,2.70
2018-03-29T05:38:12.599Z,2.70
2018-03-29T05:40:41.996Z,2.80
2018-03-29T05:43:13.184Z,2.80
2018-03-29T05:45:42.592Z,2.70
2018-03-29T05:48:12.210Z,2.80
2018-03-29T05:50:42.888Z,2.80
2018-03-29T05:53:12.497Z,2.70
2018-03-29T05:55:42.573Z,2.70
2018-03-29T05:58:12.110Z,2.80
2018-03-29T06:00:42.713Z,2.80
2018-03-29T06:03:12.375Z,2.70
2018-03-29T06:05:41.916Z,2.80
2018-03-29T06:08:12.704Z,2.70
2018-03-29T06:10:42.715Z,2.70
2018-03-29T06:13:12.185Z,2.80
2018-03-29T06:15:42.334Z,2.80
2018-03-29T06:18:14.650Z,2.80
2018-03-29T06:20:44.593Z,2.80
2018-03-29T06:23:15.570Z,2.90
2018-03-29T06:25:46.385Z,3.00
2018-03-29T06:28:16.156Z,2.90
2018-03-29T06:30:47.008Z,3.10
2018-03-29T06:33:16.968Z,3.00
2018-03-29T06:35:47.491Z,3.10
2018-03-29T06:38:17.500Z,3.10
2018-03-29T06:40:47.946Z,3.10
2018-03-29T06:43:18.438Z,3.20
2018-03-29T06:45:53.887Z,3.10
2018-03-29T06:48:23.955Z,3.20
2018-03-29T06:50:54.781Z,3.20
2018-03-29T06:53:24.461Z,3.20
2018-03-29T06:55:53.940Z,3.20
2018-03-29T06:58:23.840Z,3.20
2018-03-29T07:00:53.526Z,3.20
2018-03-29T07:03:23.452Z,3.20
2018-03-29T07:05:53.572Z,3.20
2018-03-29T07:08:27.618Z,3.30
2018-03-29T07:10:57.152Z,3.30
2018-03-29T07:13:28.216Z,3.40
2018-03-29T07:15:58.431Z,3.60
2018-03-29T07:18:29.872Z,3.60
2018-03-29T07:21:00.133Z,3.50
2018-03-29T07:23:29.710Z,3.50
2018-03-29T07:26:00.193Z,3.50
2018-03-29T07:28:30.025Z,3.40
2018-03-29T07:30:59.733Z,3.50
2018-03-29T07:33:29.462Z,3.50
2018-03-29T07:35:59.938Z,3.50
2018-03-29T07:38:32.112Z,3.40
2018-03-29T07:41:02.629Z,3.40
2018-03-29T07:43:32.429Z,3.40
2018-03-29T07:46:02.454Z,3.40
2018-03-29T07:48:32.345Z,3.50
2018-03-29T07:51:03.218Z,3.70
2018-03-29T07:53:33.871Z,3.80
2018-03-29T07:56:10.387Z,3.70
2018-03-29T07:58:41.007Z,4.30
2018-03-29T08:01:10.934Z,4.20
2018-03-29T08:06:18.475Z,5.40
2018-03-29T08:08:48.992Z,5.40
2018-03-29T08:11:19.126Z,5.40
2018-03-29T08:13:48.944Z,5.50
2018-03-29T08:16:19.686Z,5.50
2018-03-29T08:18:50.538Z,5.10
2018-03-29T08:21:25.009Z,5.00
2018-03-29T08:23:55.447Z,4.90
2018-03-29T08:26:25.458Z,4.90
2018-03-29T08:28:55.449Z,4.90
2018-03-29T08:31:26.033Z,4.90
2018-03-29T08:33:55.591Z,4.90
2018-03-29T08:36:25.511Z,4.80
2018-03-29T08:38:55.638Z,4.80
2018-03-29T08:41:26.655Z,4.80
2018-03-29T08:43:57.207Z,4.90
2018-03-29T08:46:58.013Z,4.90
2018-03-29T08:49:28.717Z,4.90
2018-03-29T08:51:58.702Z,4.90
2018-03-29T08:54:28.356Z,4.70
2018-03-29T08:56:58.093Z,4.70
2018-03-29T08:59:28.922Z,4.70
2018-03-29T09:01:59.880Z,4.80
2018-03-29T09:08:03.098Z,4.70
2018-03-29T09:10:32.634Z,4.70
2018-03-29T09:13:02.461Z,4.70
2018-03-29T09:15:32.296Z,4.70
2018-03-29T09:18:02.932Z,4.80
2018-03-29T09:20:33.368Z,4.80
2018-03-29T09:23:04.276Z,4.80
2018-03-29T09:25:33.811Z,4.80
2018-03-29T09:28:05.006Z,4.80
2018-03-29T09:30:34.941Z,4.80
2018-03-29T09:33:04.517Z,5.00
2018-03-29T09:35:34.212Z,5.00
2018-03-29T09:38:04.211Z,5.10
2018-03-29T09:40:35.407Z,5.10
2018-03-29T09:43:05.832Z,5.10
2018-03-29T09:45:36.302Z,5.20
2018-03-29T09:48:06.308Z,5.10
2018-03-29T09:50:36.703Z,5.20
2018-03-29T09:53:06.266Z,5.20
2018-03-29T09:55:36.029Z,5.20
2018-03-29T09:58:05.675Z,5.10
2018-03-29T10:00:36.666Z,5.20
2018-03-29T10:03:09.910Z,5.20
2018-03-29T10:05:39.751Z,5.20
2018-03-29T10:08:09.374Z,5.30
2018-03-29T10:10:39.816Z,5.30
2018-03-29T10:13:10.920Z,5.40
2018-03-29T10:15:41.458Z,5.40
2018-03-29T10:18:11.068Z,5.40
2018-03-29T10:20:41.599Z,5.50
2018-03-29T10:23:11.542Z,5.50
2018-03-29T10:25:42.184Z,5.70
2018-03-29T10:28:25.756Z,5.70
2018-03-29T10:30:56.386Z,6.20
2018-03-29T10:33:26.362Z,6.10
2018-03-29T10:35:56.906Z,6.40
2018-03-29T10:38:27.450Z,6.90
2018-03-29T10:40:57.675Z,6.80
2018-03-29T10:43:27.885Z,8.00
2018-03-29T10:45:58.414Z,7.50
2018-03-29T10:48:28.708Z,6.90
2018-03-29T10:50:58.055Z,6.90
2018-03-29T10:53:27.880Z,6.40
2018-03-29T10:55:57.531Z,6.10
2018-03-29T10:58:27.263Z,6.00
2018-03-29T11:00:58.307Z,5.70
2018-03-29T11:03:28.856Z,5.30
2018-03-29T11:05:58.484Z,5.30
2018-03-29T11:08:28.176Z,5.00
2018-03-29T11:10:57.668Z,4.70
2018-03-29T11:13:27.887Z,4.20
2018-03-29T11:15:58.188Z,3.80
2018-03-29T11:18:29.207Z,3.80
2018-03-29T11:20:59.483Z,3.70
2018-03-29T11:23:29.720Z,3.60
2018-03-29T11:25:59.309Z,3.50
2018-03-29T11:28:29.678Z,4.10
2018-03-29T11:31:00.933Z,4.70
2018-03-29T11:33:35.578Z,4.60
2018-03-29T11:36:04.943Z,5.20
2018-03-29T11:38:35.378Z,5.60
2018-03-29T11:41:05.110Z,5.50
2018-03-29T11:43:34.991Z,5.70
2018-03-29T11:46:05.460Z,5.60
2018-03-29T11:48:35.730Z,6.10
2018-03-29T11:51:05.301Z,6.00
2018-03-29T11:53:36.071Z,6.40
2018-03-29T11:56:06.887Z,6.50
2018-03-29T11:58:36.600Z,6.40
2018-03-29T12:01:06.462Z,6.20
2018-03-29T12:03:36.977Z,6.60
2018-03-29T12:06:06.581Z,6.60
2018-03-29T12:08:36.256Z,7.20
2018-03-29T12:11:05.818Z,7.80
2018-03-29T12:13:42.605Z,8.00
2018-03-29T12:16:12.013Z,8.10
2018-03-29T12:18:42.307Z,8.20
2018-03-29T12:21:11.882Z,8.10
2018-03-29T12:23:41.444Z,8.10
2018-03-29T12:26:16.594Z,8.20
2018-03-29T12:28:47.030Z,9.10
2018-03-29T12:31:17.497Z,9.50
2018-03-29T12:33:47.884Z,9.30
2018-03-29T12:36:18.286Z,8.70
2018-03-29T12:38:47.860Z,8.70
2018-03-29T12:41:20.416Z,8.20
2018-03-29T12:43:50.059Z,7.70
2018-03-29T12:46:24.768Z,7.70
2018-03-29T12:48:54.739Z,7.70
2018-03-29T12:51:25.260Z,8.70
2018-03-29T12:53:56.084Z,8.70
2018-03-29T12:56:34.359Z,8.60
2018-03-29T12:59:21.010Z,8.30
2018-03-29T13:01:51.184Z,7.90
2018-03-29T13:04:21.069Z,7.90
2018-03-29T13:06:50.741Z,7.60
2018-03-29T13:09:20.332Z,7.40
2018-03-29T13:11:50.195Z,7.20
2018-03-29T13:14:20.005Z,7.10
2018-03-29T13:16:50.291Z,7.00
2018-03-29T13:19:19.869Z,7.10
2018-03-29T13:21:58.255Z,7.00
2018-03-29T13:24:27.869Z,6.90
2018-03-29T13:26:57.511Z,6.90
2018-03-29T13:29:28.027Z,6.80
2018-03-29T13:31:58.492Z,6.80
2018-03-29T13:34:28.894Z,6.90
2018-03-29T13:36:59.687Z,6.80
2018-03-29T13:39:29.148Z,7.00
2018-03-29T13:41:59.038Z,7.20
2018-03-29T13:44:28.910Z,7.10
2018-03-29T13:47:02.186Z,7.20
2018-03-29T13:49:32.678Z,7.00
2018-03-29T13:52:03.146Z,6.90
2018-03-29T13:54:33.523Z,6.70
2018-03-29T13:57:03.198Z,6.60
2018-03-29T13:59:33.116Z,6.60
2018-03-29T14:02:03.285Z,6.40
2018-03-29T14:04:33.594Z,6.40
2018-03-29T14:07:03.248Z,6.40
2018-03-29T14:09:33.695Z,7.10
2018-03-29T14:12:03.355Z,7.10
2018-03-29T14:14:36.176Z,7.80
2018-03-29T14:17:08.563Z,8.30
2018-03-29T14:19:38.781Z,8.70
2018-03-29T14:22:12.093Z,8.60
2018-03-29T14:24:42.999Z,8.80
2018-03-29T14:27:13.196Z,8.80
2018-03-29T14:29:43.771Z,8.60
2018-03-29T14:32:14.293Z,8.50
2018-03-29T14:34:43.970Z,8.50
2018-03-29T14:37:15.875Z,8.60
2018-03-29T14:39:45.862Z,8.60
2018-03-29T14:42:16.455Z,9.00
2018-03-29T14:44:47.084Z,9.10
2018-03-29T14:47:16.598Z,9.00
2018-03-29T14:49:47.307Z,8.90
2018-03-29T14:52:17.016Z,8.90
2018-03-29T14:54:46.556Z,8.90
2018-03-29T14:57:16.154Z,8.80
2018-03-29T14:59:46.413Z,8.30
2018-03-29T15:02:16.005Z,8.20
2018-03-29T15:04:46.478Z,7.70
2018-03-29T15:07:16.955Z,7.40
2018-03-29T15:09:47.516Z,7.10
2018-03-29T15:12:17.289Z,7.00
2018-03-29T15:14:47.003Z,6.70
2018-03-29T15:17:16.771Z,6.40
2018-03-29T15:19:46.557Z,6.10
2018-03-29T15:22:16.277Z,5.90
2018-03-29T15:24:46.058Z,5.80
2018-03-29T15:27:16.752Z,5.50
2018-03-29T15:29:46.572Z,5.40
2018-03-29T15:32:16.133Z,5.20
2018-03-29T15:34:45.832Z,5.00
2018-03-29T15:37:16.497Z,4.80
2018-03-29T15:39:46.824Z,5.10
2018-03-29T15:42:16.702Z,5.00
2018-03-29T15:44:46.567Z,5.20
2018-03-29T15:47:20.407Z,5.40
2018-03-29T15:49:50.090Z,5.60
2018-03-29T15:52:19.535Z,5.60
2018-03-29T15:54:49.983Z,5.50
2018-03-29T15:57:19.499Z,5.50
2018-03-29T15:59:49.914Z,5.20
2018-03-29T16:02:20.337Z,5.00
2018-03-29T16:04:50.592Z,4.90
2018-03-29T16:07:21.471Z,5.00
2018-03-29T16:09:50.935Z,4.90
2018-03-29T16:12:21.015Z,5.00
2018-03-29T16:14:51.266Z,5.00
2018-03-29T16:17:21.455Z,5.10
2018-03-29T16:19:51.043Z,5.00
2018-03-29T16:22:21.764Z,5.20
2018-03-29T16:24:51.453Z,5.10
2018-03-29T16:27:22.804Z,5.00
2018-03-29T16:29:53.261Z,5.00
2018-03-29T16:32:23.707Z,5.00
2018-03-29T16:34:53.393Z,5.00
2018-03-29T16:37:23.682Z,5.00
2018-03-29T16:39:53.339Z,4.90
2018-03-29T16:42:37.553Z,5.00
2018-03-29T16:45:07.488Z,4.90
2018-03-29T16:47:38.315Z,5.00
2018-03-29T16:50:08.631Z,5.00
2018-03-29T16:52:38.959Z,5.00
2018-03-29T16:55:08.607Z,5.00
2018-03-29T16:57:47.255Z,5.00
2018-03-29T17:00:18.548Z,5.00
2018-03-29T17:02:48.277Z,4.90
2018-03-29T17:05:19.048Z,5.00
2018-03-29T17:07:48.774Z,4.90
2018-03-29T17:10:19.145Z,4.90
2018-03-29T17:12:48.612Z,5.00
2018-03-29T17:15:18.269Z,4.90
2018-03-29T17:17:47.776Z,4.90
2018-03-29T17:20:18.250Z,4.80
2018-03-29T17:22:47.982Z,4.80
2018-03-29T17:25:18.289Z,4.70
2018-03-29T17:27:48.984Z,4.70
2018-03-29T17:30:18.576Z,4.60
2018-03-29T17:35:26.183Z,4.50
2018-03-29T17:37:55.650Z,4.40
2018-03-29T17:40:24.996Z,4.40
2018-03-29T17:43:01.520Z,4.30
2018-03-29T17:45:31.236Z,4.30
2018-03-29T17:48:01.586Z,4.20
2018-03-29T17:50:34.395Z,4.10
2018-03-29T17:53:04.751Z,4.10
2018-03-29T17:55:34.275Z,4.10
2018-03-29T17:58:05.771Z,3.90
2018-03-29T18:00:36.052Z,3.80
2018-03-29T18:03:06.271Z,3.70
2018-03-29T18:05:36.730Z,3.70
2018-03-29T18:08:06.241Z,3.70
2018-03-29T18:10:35.537Z,3.70
2018-03-29T18:13:05.222Z,3.60
2018-03-29T18:15:35.542Z,3.30
2018-03-29T18:18:05.164Z,3.20
2018-03-29T18:20:34.630Z,3.20
2018-03-29T18:23:04.313Z,3.20
2018-03-29T18:25:33.843Z,3.20
2018-03-29T18:28:03.779Z,3.20
2018-03-29T18:31:04.255Z,3.20
2018-03-29T18:33:33.637Z,3.10
2018-03-29T18:36:03.087Z,3.10
2018-03-29T18:38:32.636Z,3.00
2018-03-29T18:41:02.930Z,2.90
2018-03-29T18:43:32.444Z,2.90
2018-03-29T18:46:02.081Z,2.90
2018-03-29T18:48:31.737Z,2.90
2018-03-29T18:51:01.141Z,2.90
2018-03-29T18:53:30.545Z,3.00
2018-03-29T18:56:00.029Z,3.00
2018-03-29T18:58:29.492Z,3.10
2018-03-29T19:01:00.797Z,3.20
2018-03-29T19:03:30.408Z,3.10
2018-03-29T19:06:00.634Z,3.20
2018-03-29T19:08:30.116Z,3.20
2018-03-29T19:11:02.399Z,3.30
2018-03-29T19:13:31.866Z,3.20
2018-03-29T19:16:01.908Z,3.40
2018-03-29T19:18:31.408Z,3.40
2018-03-29T19:21:00.851Z,3.40
2018-03-29T19:23:30.322Z,3.50
2018-03-29T19:25:59.816Z,3.40
2018-03-29T19:28:29.296Z,3.50
2018-03-29T19:30:59.544Z,3.50
2018-03-29T19:34:48.901Z,3.40
2018-03-29T19:37:18.258Z,3.30
2018-03-29T19:39:47.523Z,3.30
2018-03-29T19:42:17.062Z,3.20
2018-03-29T19:44:55.165Z,3.20
2018-03-29T19:47:24.554Z,3.20
2018-03-29T19:49:53.808Z,3.20
2018-03-29T19:52:23.192Z,3.20
2018-03-29T19:54:53.406Z,3.40
2018-03-29T19:57:23.724Z,3.40
2018-03-29T19:59:53.056Z,3.30
2018-03-29T20:02:22.456Z,3.40
2018-03-29T20:04:51.867Z,3.40
2018-03-29T20:07:21.374Z,3.40
2018-03-29T20:09:53.380Z,3.40
2018-03-29T20:12:22.793Z,3.40
2018-03-29T20:14:54.370Z,3.40
2018-03-29T20:17:29.095Z,3.30
2018-03-29T20:19:59.392Z,3.30
2018-03-29T20:22:28.776Z,3.30
2018-03-29T20:24:58.198Z,3.30
2018-03-29T20:27:27.660Z,3.20
2018-03-29T20:29:57.088Z,3.20
2018-03-29T20:35:58.463Z,3.20
2018-03-29T20:38:27.899Z,3.30
2018-03-29T20:41:00.739Z,3.30
2018-03-29T20:43:30.447Z,3.20
2018-03-29T20:46:00.310Z,3.30
2018-03-29T20:48:30.648Z,3.30
2018-03-29T20:51:00.920Z,3.30
2018-03-29T20:53:30.474Z,3.20
2018-03-29T20:55:59.941Z,3.30
2018-03-29T20:58:30.426Z,3.40
2018-03-29T21:01:00.207Z,3.40
2018-03-29T21:03:29.823Z,3.40
2018-03-29T21:06:00.386Z,3.40
2018-03-29T21:08:30.782Z,3.30
2018-03-29T21:11:00.299Z,3.30
2018-03-29T21:13:29.767Z,3.20
2018-03-29T21:15:59.932Z,3.10
2018-03-29T21:18:30.414Z,3.10
2018-03-29T21:20:59.932Z,3.10
2018-03-29T21:23:30.639Z,3.00
2018-03-29T21:27:19.705Z,3.00
2018-03-29T21:29:49.517Z,3.00
2018-03-29T21:32:19.114Z,3.10
2018-03-29T21:34:48.728Z,3.10
2018-03-29T21:37:18.526Z,3.10
2018-03-29T21:39:48.164Z,3.20
2018-03-29T21:42:22.102Z,3.20
2018-03-29T21:44:51.576Z,3.20
2018-03-29T21:47:21.229Z,3.20
2018-03-29T21:49:50.526Z,3.20
2018-03-29T21:52:19.953Z,3.20
2018-03-29T21:54:49.574Z,3.30
2018-03-29T21:57:19.113Z,3.30
2018-03-29T21:59:48.590Z,3.30
2018-03-29T22:02:20.167Z,3.30
2018-03-29T22:04:49.575Z,3.30
2018-03-29T22:07:19.842Z,3.20
2018-03-29T22:09:49.187Z,3.20
2018-03-29T22:12:18.622Z,3.20
2018-03-29T22:14:48.783Z,3.30
2018-03-29T22:17:18.324Z,3.30
2018-03-29T22:19:47.997Z,3.30
2018-03-29T22:22:17.321Z,3.30
2018-03-29T22:24:46.754Z,3.30
2018-03-29T22:27:17.056Z,3.10
2018-03-29T22:29:46.471Z,3.10
2018-03-29T22:32:17.133Z,2.80
2018-03-29T22:34:46.612Z,2.80
2018-03-29T22:37:16.808Z,2.60
2018-03-29T22:39:46.400Z,2.50
2018-03-29T22:42:15.851Z,2.40
2018-03-29T22:44:45.900Z,2.30
2018-03-29T22:47:15.434Z,2.20
2018-03-29T22:49:45.112Z,2.50
2018-03-29T22:52:14.700Z,2.80
2018-03-29T22:54:44.456Z,3.10
2018-03-29T22:57:14.896Z,3.30
2018-03-29T22:59:47.129Z,3.30
2018-03-29T23:02:16.726Z,3.30
2018-03-29T23:04:46.140Z,3.40
2018-03-29T23:07:16.561Z,3.40
2018-03-29T23:09:46.099Z,3.40
2018-03-29T23:12:15.792Z,3.40
2018-03-29T23:14:45.494Z,3.30
2018-03-29T23:17:15.208Z,3.30
2018-03-29T23:19:45.389Z,3.40
2018-03-29T23:22:15.719Z,3.40
2018-03-29T23:24:46.144Z,3.50
2018-03-29T23:27:16.624Z,3.50
2018-03-29T23:29:46.324Z,3.40
2018-03-29T23:32:15.941Z,3.50
2018-03-29T23:34:45.636Z,3.50
2018-03-29T23:37:15.139Z,3.50
2018-03-29T23:39:44.748Z,3.40
2018-03-29T23:42:14.705Z,3.40
2018-03-29T23:44:45.200Z,3.50
2018-03-29T23:47:14.680Z,3.40
2018-03-29T23:49:44.116Z,3.60
2018-03-29T23:52:13.541Z,3.60
2018-03-29T23:54:43.044Z,3.60
2018-03-29T23:57:12.835Z,3.60
2018-03-29T23:59:42.412Z,3.50
